createdAt,value
2022-08-16T00:01:26.613Z,4.90
2022-08-16T00:04:01.318Z,5.50
2022-08-16T00:06:33.135Z,4.97
2022-08-16T00:09:00.621Z,5.20
2022-08-16T00:11:28.393Z,5.13
2022-08-16T00:13:56.008Z,5.03
2022-08-16T00:17:00.617Z,5.10
2022-08-16T00:19:40.987Z,5.50
2022-08-16T00:22:12.967Z,5.07
2022-08-16T00:24:46.759Z,5.07
2022-08-16T00:27:15.695Z,4.60
2022-08-16T00:29:45.924Z,5.37
2022-08-16T00:32:18.121Z,5.30
2022-08-16T00:34:53.090Z,5.90
2022-08-16T00:37:57.056Z,5.67
2022-08-16T00:40:43.718Z,5.73
2022-08-16T00:43:42.630Z,5.20
2022-08-16T00:46:52.931Z,5.93
2022-08-16T00:49:26.520Z,6.47
2022-08-16T00:51:55.672Z,6.50
2022-08-16T00:54:32.940Z,5.80
2022-08-16T00:57:03.818Z,6.23
2022-08-16T00:59:42.444Z,6.30
2022-08-16T01:02:31.330Z,6.07
2022-08-16T01:05:10.681Z,5.70
2022-08-16T01:07:51.338Z,6.17
2022-08-16T01:10:31.955Z,7.37
2022-08-16T01:13:21.985Z,5.73
2022-08-16T01:16:19.884Z,6.00
2022-08-16T01:19:29.304Z,5.70
2022-08-16T01:22:49.965Z,5.83
2022-08-16T01:25:36.297Z,5.43
2022-08-16T01:28:20.093Z,6.10
2022-08-16T01:30:56.806Z,5.87
2022-08-16T01:33:33.439Z,6.50
2022-08-16T01:36:12.353Z,6.00
2022-08-16T01:38:53.172Z,6.17
2022-08-16T01:41:31.384Z,5.73
2022-08-16T01:44:01.217Z,5.60
2022-08-16T01:46:46.814Z,6.00
2022-08-16T01:50:40.743Z,6.53
2022-08-16T01:52:29.476Z,5.90
2022-08-16T01:54:59.626Z,5.83
2022-08-16T01:57:31.638Z,6.10
2022-08-16T02:00:01.193Z,5.70
2022-08-16T02:02:30.059Z,5.77
2022-08-16T02:05:00.328Z,5.30
2022-08-16T02:07:28.566Z,5.90
2022-08-16T02:09:59.595Z,6.60
2022-08-16T02:12:51.726Z,5.30
2022-08-16T02:15:27.226Z,5.63
2022-08-16T02:18:01.155Z,6.60
2022-08-16T02:20:36.309Z,5.80
2022-08-16T02:23:08.649Z,6.03
2022-08-16T02:25:52.530Z,6.30
2022-08-16T02:28:24.963Z,5.60
2022-08-16T02:30:59.606Z,5.87
2022-08-16T02:33:43.775Z,6.20
2022-08-16T02:36:48.110Z,5.87
2022-08-16T02:39:08.698Z,4.73
2022-08-16T02:41:40.732Z,4.90
2022-08-16T02:44:13.839Z,5.83
2022-08-16T02:46:50.425Z,5.60
2022-08-16T02:49:20.641Z,5.90
2022-08-16T02:51:48.289Z,6.20
2022-08-16T02:54:18.170Z,5.10
2022-08-16T02:56:47.836Z,6.70
2022-08-16T02:59:15.846Z,6.13
2022-08-16T03:01:43.989Z,6.50
2022-08-16T03:04:28.941Z,5.27
2022-08-16T03:06:59.837Z,6.83
2022-08-16T03:09:28.786Z,6.30
2022-08-16T03:11:58.142Z,5.97
2022-08-16T03:14:26.746Z,5.83
2022-08-16T03:16:59.914Z,6.13
2022-08-16T03:19:47.333Z,5.87
2022-08-16T03:22:28.210Z,6.77
2022-08-16T03:25:07.655Z,6.87
2022-08-16T03:27:39.078Z,6.27
2022-08-16T03:30:20.893Z,6.07
2022-08-16T03:32:51.342Z,6.20
2022-08-16T03:35:33.003Z,7.20
2022-08-16T03:38:34.309Z,6.23
2022-08-16T03:40:58.802Z,6.10
2022-08-16T03:43:51.197Z,5.70
2022-08-16T03:46:48.162Z,6.53
2022-08-16T03:49:10.866Z,6.27
2022-08-16T03:51:43.793Z,6.90
2022-08-16T03:54:12.516Z,5.90
2022-08-16T03:56:56.892Z,7.30
2022-08-16T03:59:29.719Z,6.70
2022-08-16T04:02:01.418Z,6.40
2022-08-16T04:04:33.036Z,6.50
2022-08-16T04:07:07.287Z,6.37
2022-08-16T04:09:37.848Z,6.70
2022-08-16T04:12:11.046Z,6.00
2022-08-16T04:14:46.727Z,6.37
2022-08-16T04:17:17.429Z,6.80
2022-08-16T04:19:45.675Z,6.50
2022-08-16T04:22:17.185Z,5.90
2022-08-16T04:24:54.041Z,6.40
2022-08-16T04:27:22.418Z,7.37
2022-08-16T04:29:52.573Z,6.40
2022-08-16T04:32:20.858Z,7.30
2022-08-16T04:34:48.942Z,7.00
2022-08-16T04:37:16.476Z,7.17
2022-08-16T04:39:46.830Z,7.23
2022-08-16T04:42:26.142Z,8.17
2022-08-16T04:44:56.211Z,6.50
2022-08-16T04:47:35.786Z,7.23
2022-08-16T04:50:19.326Z,7.10
2022-08-16T04:52:51.005Z,7.10
2022-08-16T04:55:37.631Z,7.57
2022-08-16T04:58:38.453Z,6.30
2022-08-16T05:00:56.412Z,6.37
2022-08-16T05:03:26.131Z,6.90
2022-08-16T05:05:55.799Z,6.10
2022-08-16T05:08:31.475Z,5.40
2022-08-16T05:11:05.783Z,5.73
2022-08-16T05:13:43.586Z,5.50
2022-08-16T05:16:25.160Z,6.00
2022-08-16T05:18:58.564Z,6.00
2022-08-16T05:21:37.967Z,6.30
2022-08-16T05:24:09.180Z,5.07
2022-08-16T05:26:43.164Z,6.67
2022-08-16T05:29:17.266Z,5.97
2022-08-16T05:31:52.964Z,6.03
2022-08-16T05:34:22.330Z,5.97
2022-08-16T05:36:51.336Z,6.17
2022-08-16T05:39:20.542Z,5.40
2022-08-16T05:41:48.995Z,5.50
2022-08-16T05:44:25.043Z,6.73
2022-08-16T05:47:01.022Z,5.83
2022-08-16T05:49:39.631Z,6.20
2022-08-16T05:52:17.178Z,5.90
2022-08-16T05:54:48.229Z,6.10
2022-08-16T05:57:35.603Z,5.40
2022-08-16T06:00:22.284Z,5.43
2022-08-16T06:02:50.641Z,5.70
2022-08-16T06:05:19.818Z,6.10
2022-08-16T06:07:58.248Z,5.23
2022-08-16T06:10:31.852Z,5.67
2022-08-16T06:13:01.307Z,5.17
2022-08-16T06:15:30.674Z,4.13
2022-08-16T06:17:59.314Z,5.20
2022-08-16T06:20:35.347Z,4.40
2022-08-16T06:23:16.728Z,5.20
2022-08-16T06:25:52.962Z,4.53
2022-08-16T06:28:34.795Z,5.40
2022-08-16T06:31:09.872Z,5.30
2022-08-16T06:33:42.358Z,5.73
2022-08-16T06:36:15.315Z,4.70
2022-08-16T06:38:52.314Z,5.90
2022-08-16T06:41:27.604Z,5.10
2022-08-16T06:43:56.638Z,4.68
2022-08-16T06:46:39.315Z,5.72
2022-08-16T06:49:12.488Z,5.03
2022-08-16T06:51:48.046Z,5.70
2022-08-16T06:54:17.535Z,6.77
2022-08-16T06:56:52.342Z,6.47
2022-08-16T06:59:25.696Z,5.70
2022-08-16T07:01:55.379Z,6.10
2022-08-16T07:04:32.736Z,4.80
2022-08-16T07:07:03.281Z,6.53
2022-08-16T07:09:31.539Z,6.60
2022-08-16T07:12:03.606Z,5.90
2022-08-16T07:14:35.153Z,5.20
2022-08-16T07:17:08.328Z,5.90
2022-08-16T07:20:03.599Z,5.25
2022-08-16T07:22:52.435Z,4.88
2022-08-16T07:25:16.942Z,5.70
2022-08-16T07:27:44.975Z,5.45
2022-08-16T07:30:39.320Z,4.95
2022-08-16T07:33:09.438Z,5.53
2022-08-16T07:35:44.428Z,5.53
2022-08-16T07:38:20.056Z,5.07
2022-08-16T07:41:09.616Z,6.00
2022-08-16T07:43:35.704Z,5.88
2022-08-16T07:46:39.693Z,6.35
2022-08-16T07:49:02.327Z,6.90
2022-08-16T07:51:36.959Z,7.07
2022-08-16T07:54:10.929Z,5.65
2022-08-16T07:56:41.976Z,7.07
2022-08-16T07:59:10.818Z,5.68
2022-08-16T08:01:39.474Z,5.57
2022-08-16T08:04:13.407Z,6.78
2022-08-16T08:06:42.116Z,6.00
2022-08-16T08:09:10.109Z,5.40
2022-08-16T08:11:38.089Z,6.35
2022-08-16T08:14:06.793Z,7.20
2022-08-16T08:16:35.715Z,5.85
2022-08-16T08:19:05.278Z,6.85
2022-08-16T08:21:58.768Z,7.28
2022-08-16T08:24:32.033Z,7.30
2022-08-16T08:27:04.567Z,6.80
2022-08-16T08:29:37.233Z,6.90
2022-08-16T08:32:57.727Z,7.00
2022-08-16T08:35:03.954Z,7.87
2022-08-16T08:37:54.410Z,8.50
2022-08-16T08:40:27.673Z,7.80
2022-08-16T08:43:12.140Z,8.00
2022-08-16T08:45:48.756Z,8.50
2022-08-16T08:48:32.866Z,8.93
2022-08-16T08:51:08.969Z,8.30
2022-08-16T08:53:38.496Z,7.90
2022-08-16T08:56:23.625Z,8.93
2022-08-16T08:58:59.105Z,8.40
2022-08-16T09:01:36.937Z,6.00
2022-08-16T09:04:14.742Z,7.07
2022-08-16T09:06:46.021Z,7.10
2022-08-16T09:09:16.657Z,6.60
2022-08-16T09:11:53.493Z,6.68
2022-08-16T09:14:29.585Z,6.50
2022-08-16T09:17:02.477Z,7.50
2022-08-16T09:19:40.714Z,6.63
2022-08-16T09:22:20.117Z,6.50
2022-08-16T09:24:53.370Z,6.47
2022-08-16T09:27:26.553Z,6.05
2022-08-16T09:29:59.770Z,5.88
2022-08-16T09:32:31.375Z,5.95
2022-08-16T09:35:02.446Z,6.40
2022-08-16T09:37:36.681Z,6.03
2022-08-16T09:40:32.260Z,6.35
2022-08-16T09:42:59.057Z,6.43
2022-08-16T09:45:29.087Z,7.43
2022-08-16T09:47:58.545Z,7.50
2022-08-16T09:50:37.055Z,7.00
2022-08-16T09:53:19.752Z,7.00
2022-08-16T09:55:56.862Z,6.03
2022-08-16T09:58:39.054Z,6.17
2022-08-16T10:01:11.382Z,6.60
2022-08-16T10:04:02.359Z,6.43
2022-08-16T10:06:33.445Z,6.70
2022-08-16T10:09:11.207Z,6.30
2022-08-16T10:12:11.052Z,5.83
2022-08-16T10:14:46.740Z,6.03
2022-08-16T10:17:14.865Z,6.40
2022-08-16T10:19:43.310Z,6.93
2022-08-16T10:22:12.960Z,6.47
2022-08-16T10:24:55.826Z,6.10
2022-08-16T10:27:29.834Z,6.90
2022-08-16T10:30:25.676Z,6.57
2022-08-16T10:32:56.318Z,7.10
2022-08-16T10:35:32.860Z,6.27
2022-08-16T10:38:00.956Z,6.27
2022-08-16T10:40:30.637Z,6.10
2022-08-16T10:43:02.330Z,5.53
2022-08-16T10:45:37.138Z,5.50
2022-08-16T10:48:28.017Z,6.67
2022-08-16T10:50:59.204Z,5.30
2022-08-16T10:53:32.921Z,6.00
2022-08-16T10:56:52.071Z,5.33
2022-08-16T10:59:32.617Z,5.50
2022-08-16T11:02:21.775Z,5.37
2022-08-16T11:10:20.419Z,6.50
2022-08-16T11:12:48.777Z,5.83
2022-08-16T11:15:21.004Z,6.13
2022-08-16T11:19:03.144Z,5.60
2022-08-16T11:20:49.329Z,5.30
2022-08-16T11:23:18.365Z,5.57
2022-08-16T11:26:20.548Z,5.10
2022-08-16T11:29:12.320Z,5.17
2022-08-16T11:31:25.479Z,5.17
2022-08-16T11:33:53.878Z,5.67
2022-08-16T11:36:27.353Z,5.53
2022-08-16T11:39:00.515Z,5.77
2022-08-16T11:41:29.380Z,5.30
2022-08-16T11:43:58.548Z,6.63
2022-08-16T11:46:43.627Z,5.37
2022-08-16T11:49:15.611Z,5.40
2022-08-16T11:51:45.470Z,5.37
2022-08-16T11:54:21.205Z,4.70
2022-08-16T11:56:56.995Z,5.00
2022-08-16T11:59:30.138Z,5.50
2022-08-16T12:02:11.581Z,5.03
2022-08-16T12:04:51.840Z,5.60
2022-08-16T12:07:21.143Z,5.93
2022-08-16T12:09:54.140Z,5.47
2022-08-16T12:12:23.860Z,5.03
2022-08-16T12:15:00.318Z,5.47
2022-08-16T12:17:32.482Z,5.77
2022-08-16T12:20:07.531Z,5.23
2022-08-16T12:22:37.149Z,5.57
2022-08-16T12:25:15.796Z,4.90
2022-08-16T12:27:47.202Z,5.23
2022-08-16T12:30:33.697Z,5.57
2022-08-16T12:33:12.355Z,5.10
2022-08-16T12:35:41.992Z,5.67
2022-08-16T12:38:41.539Z,5.50
2022-08-16T12:40:58.761Z,5.90
2022-08-16T12:43:26.981Z,5.30
2022-08-16T12:45:59.975Z,6.23
2022-08-16T12:48:52.746Z,5.60
2022-08-16T12:51:30.599Z,4.97
2022-08-16T12:54:07.675Z,5.47
2022-08-16T12:56:39.547Z,5.80
2022-08-16T12:59:16.809Z,5.73
2022-08-16T13:01:50.600Z,5.80
2022-08-16T13:04:24.575Z,4.97
2022-08-16T13:06:53.305Z,6.07
2022-08-16T13:09:26.049Z,6.07
2022-08-16T13:12:16.254Z,5.20
2022-08-16T13:14:45.959Z,5.77
2022-08-16T13:17:26.393Z,5.20
2022-08-16T13:20:13.758Z,5.90
2022-08-16T13:23:02.057Z,6.70
2022-08-16T13:25:36.528Z,4.63
2022-08-16T13:28:06.356Z,5.37
2022-08-16T13:30:44.284Z,5.40
2022-08-16T13:33:27.693Z,5.70
2022-08-16T13:36:01.338Z,5.90
2022-08-16T13:38:36.507Z,5.37
2022-08-16T13:41:11.922Z,5.63
2022-08-16T13:43:42.006Z,6.10
2022-08-16T13:46:09.835Z,5.03
2022-08-16T13:48:44.012Z,6.33
2022-08-16T13:51:20.353Z,5.60
2022-08-16T13:53:59.703Z,6.73
2022-08-16T13:56:37.544Z,5.90
2022-08-16T13:59:20.164Z,6.90
2022-08-16T14:01:59.803Z,5.70
2022-08-16T14:04:38.155Z,5.87
2022-08-16T14:07:19.707Z,6.70
2022-08-16T14:09:47.996Z,5.10
2022-08-16T14:12:31.551Z,5.40
2022-08-16T14:15:01.759Z,5.63
2022-08-16T14:17:31.248Z,5.57
2022-08-16T14:20:19.162Z,5.03
2022-08-16T14:22:52.559Z,5.60
2022-08-16T14:25:25.678Z,5.33
2022-08-16T14:27:55.103Z,4.80
2022-08-16T14:30:25.203Z,5.90
2022-08-16T14:32:54.294Z,5.67
2022-08-16T14:35:48.455Z,4.90
2022-08-16T14:38:23.943Z,5.47
2022-08-16T14:40:55.378Z,5.50
2022-08-16T14:43:29.901Z,5.90
2022-08-16T14:45:59.789Z,5.00
2022-08-16T14:48:27.351Z,5.23
2022-08-16T14:50:56.133Z,5.30
2022-08-16T14:53:26.616Z,5.13
2022-08-16T14:55:55.456Z,5.80
2022-08-16T14:58:34.458Z,6.77
2022-08-16T15:01:09.838Z,5.77
2022-08-16T15:03:44.844Z,5.30
2022-08-16T15:06:14.263Z,5.60
2022-08-16T15:08:42.343Z,6.23
2022-08-16T15:11:12.961Z,5.27
2022-08-16T15:13:41.417Z,5.50
2022-08-16T15:16:09.267Z,4.93
2022-08-16T15:18:36.805Z,5.60
2022-08-16T15:21:08.326Z,5.20
2022-08-16T15:23:36.808Z,5.63
2022-08-16T15:26:08.283Z,5.30
2022-08-16T15:28:38.096Z,5.10
2022-08-16T15:31:13.132Z,5.37
2022-08-16T15:33:56.422Z,5.23
2022-08-16T15:36:26.617Z,5.50
2022-08-16T15:39:05.867Z,4.80
2022-08-16T15:41:46.945Z,5.00
2022-08-16T15:44:23.765Z,4.83
2022-08-16T15:46:59.961Z,5.30
2022-08-16T15:49:38.076Z,5.17
2022-08-16T15:52:30.054Z,4.57
2022-08-16T15:55:23.565Z,4.67
2022-08-16T15:57:56.666Z,5.47
2022-08-16T16:00:26.538Z,5.03
2022-08-16T16:03:16.418Z,4.57
2022-08-16T16:05:51.013Z,4.80
2022-08-16T16:08:25.395Z,5.17
2022-08-16T16:11:00.434Z,5.20
2022-08-16T16:13:32.553Z,5.20
2022-08-16T16:16:03.923Z,5.30
2022-08-16T16:18:40.912Z,5.23
2022-08-16T16:21:20.501Z,4.77
2022-08-16T16:23:54.727Z,4.90
2022-08-16T16:26:26.816Z,4.50
2022-08-16T16:29:08.739Z,4.67
2022-08-16T16:31:59.537Z,5.20
2022-08-16T16:34:32.383Z,5.17
2022-08-16T16:37:04.124Z,5.57
2022-08-16T16:39:32.681Z,5.03
2022-08-16T16:42:00.502Z,5.23
2022-08-16T16:44:33.676Z,5.63
2022-08-16T16:47:04.149Z,5.03
2022-08-16T16:49:33.937Z,4.70
2022-08-16T16:52:06.587Z,5.30
2022-08-16T16:54:35.917Z,4.77
2022-08-16T16:57:04.346Z,5.07
2022-08-16T16:59:31.780Z,4.43
2022-08-16T17:02:41.558Z,5.30
2022-08-16T17:04:49.446Z,4.50
2022-08-16T17:07:23.894Z,5.13
2022-08-16T17:09:53.759Z,5.03
2022-08-16T17:12:25.115Z,5.10
2022-08-16T17:15:14.939Z,4.93
2022-08-16T17:18:00.305Z,4.77
2022-08-16T17:20:30.009Z,5.00
2022-08-16T17:22:58.451Z,4.50
2022-08-16T17:25:36.387Z,4.90
2022-08-16T17:28:58.223Z,5.23
2022-08-16T17:30:56.435Z,4.80
2022-08-16T17:33:25.508Z,5.20
2022-08-16T17:35:55.165Z,4.87
2022-08-16T17:39:28.517Z,4.90
2022-08-16T17:41:18.243Z,4.67
2022-08-16T17:43:45.950Z,5.40
2022-08-16T17:46:50.553Z,5.00
2022-08-16T17:49:05.495Z,4.67
2022-08-16T17:51:34.364Z,4.80
2022-08-16T17:54:03.686Z,4.83
2022-08-16T17:56:32.008Z,4.43
2022-08-16T17:58:59.827Z,5.40
2022-08-16T18:01:29.418Z,4.93
2022-08-16T18:04:06.742Z,5.40
2022-08-16T18:06:39.715Z,4.40
2022-08-16T18:09:10.374Z,4.70
2022-08-16T18:11:41.257Z,5.33
2022-08-16T18:14:13.308Z,5.07
2022-08-16T18:16:41.542Z,5.17
2022-08-16T18:19:11.177Z,5.17
2022-08-16T18:21:57.174Z,5.30
2022-08-16T18:24:29.330Z,5.70
2022-08-16T18:26:57.113Z,4.80
2022-08-16T18:29:48.575Z,4.73
2022-08-16T18:32:24.288Z,5.93
2022-08-16T18:34:54.837Z,5.10
2022-08-16T18:37:24.583Z,5.37
2022-08-16T18:39:52.259Z,5.20
2022-08-16T18:42:21.032Z,5.87
2022-08-16T18:44:49.154Z,5.67
2022-08-16T18:47:16.684Z,5.93
2022-08-16T18:49:44.483Z,5.53
2022-08-16T18:52:25.756Z,5.40
2022-08-16T18:55:02.032Z,4.40
2022-08-16T18:57:41.740Z,5.80
2022-08-16T19:00:13.694Z,5.10
2022-08-16T19:02:58.003Z,5.33
2022-08-16T19:05:31.110Z,5.03
2022-08-16T19:07:59.258Z,5.10
2022-08-16T19:10:26.858Z,5.57
2022-08-16T19:12:54.462Z,5.20
2022-08-16T19:15:28.720Z,5.97
2022-08-16T19:17:56.956Z,5.50
2022-08-16T19:20:28.314Z,5.60
2022-08-16T19:23:05.587Z,5.60
2022-08-16T19:25:49.109Z,5.57
2022-08-16T19:28:50.972Z,6.00
2022-08-16T19:31:33.939Z,4.80
2022-08-16T19:34:05.225Z,5.03
2022-08-16T19:36:38.570Z,4.70
2022-08-16T19:39:15.352Z,5.57
2022-08-16T19:41:53.784Z,5.23
2022-08-16T19:44:23.524Z,5.67
2022-08-16T19:46:51.684Z,5.83
2022-08-16T19:49:19.469Z,5.90
2022-08-16T19:51:48.482Z,7.40
2022-08-16T19:54:17.626Z,6.17
2022-08-16T19:56:45.226Z,5.97
2022-08-16T19:59:20.041Z,5.77
2022-08-16T20:01:52.169Z,7.13
2022-08-16T20:04:22.319Z,6.60
2022-08-16T20:06:53.246Z,6.30
2022-08-16T20:09:24.061Z,6.33
2022-08-16T20:11:54.362Z,6.80
2022-08-16T20:14:26.324Z,7.13
2022-08-16T20:17:00.745Z,6.80
2022-08-16T20:19:37.944Z,6.30
2022-08-16T20:22:53.103Z,6.27
2022-08-16T20:25:41.668Z,6.80
2022-08-16T20:28:33.401Z,6.13
2022-08-16T20:31:04.323Z,5.87
2022-08-16T20:33:32.236Z,6.30
2022-08-16T20:35:59.786Z,6.67
2022-08-16T20:38:27.384Z,8.33
2022-08-16T20:41:00.467Z,7.50
2022-08-16T20:43:28.279Z,7.70
2022-08-16T20:45:55.823Z,6.03
2022-08-16T20:48:23.299Z,8.00
2022-08-16T20:50:50.836Z,7.10
2022-08-16T20:53:18.601Z,6.90
2022-08-16T20:55:46.141Z,7.43
2022-08-16T20:58:14.078Z,7.70
2022-08-16T21:00:42.134Z,6.73
2022-08-16T21:03:13.571Z,6.93
2022-08-16T21:05:42.861Z,6.83
2022-08-16T21:08:28.754Z,7.20
2022-08-16T21:11:03.863Z,8.50
2022-08-16T21:13:33.926Z,7.30
2022-08-16T21:16:02.972Z,6.70
2022-08-16T21:18:30.587Z,6.70
2022-08-16T21:20:58.198Z,6.70
2022-08-16T21:23:26.240Z,7.37
2022-08-16T21:25:58.955Z,6.97
2022-08-16T21:28:41.306Z,6.87
2022-08-16T21:31:17.621Z,6.70
2022-08-16T21:33:54.174Z,7.50
2022-08-16T21:36:35.699Z,6.00
2022-08-16T21:39:06.478Z,6.50
2022-08-16T21:41:36.231Z,6.40
2022-08-16T21:44:05.144Z,6.57
2022-08-16T21:46:34.009Z,6.90
2022-08-16T21:49:01.656Z,6.40
2022-08-16T21:51:29.113Z,7.17
2022-08-16T21:53:56.972Z,6.37
2022-08-16T21:56:24.541Z,7.00
2022-08-16T21:58:52.459Z,6.57
2022-08-16T22:01:23.592Z,7.07
2022-08-16T22:04:09.609Z,6.87
2022-08-16T22:06:43.404Z,8.10
2022-08-16T22:09:15.632Z,7.20
2022-08-16T22:11:44.928Z,6.63
2022-08-16T22:14:12.969Z,7.20
2022-08-16T22:16:44.123Z,7.57
2022-08-16T22:19:13.292Z,8.10
2022-08-16T22:21:41.275Z,7.80
2022-08-16T22:24:09.336Z,7.80
2022-08-16T22:26:42.807Z,6.87
2022-08-16T22:29:15.108Z,7.60
2022-08-16T22:31:44.916Z,8.17
2022-08-16T22:34:14.211Z,7.93
2022-08-16T22:36:42.123Z,7.27
2022-08-16T22:39:14.930Z,8.00
2022-08-16T22:41:45.803Z,7.07
2022-08-16T22:44:13.813Z,8.77
2022-08-16T22:46:41.599Z,7.23
2022-08-16T22:49:11.690Z,7.17
2022-08-16T22:51:40.464Z,8.50
2022-08-16T22:54:45.121Z,8.00
2022-08-16T22:56:57.769Z,8.10
2022-08-16T22:59:25.729Z,8.67
2022-08-16T23:01:53.650Z,7.40
2022-08-16T23:04:24.042Z,8.63
2022-08-16T23:06:52.839Z,8.60
2022-08-16T23:09:21.066Z,9.77
2022-08-16T23:11:48.795Z,8.10
2022-08-16T23:14:17.537Z,8.37
2022-08-16T23:16:47.242Z,8.70
2022-08-16T23:19:17.163Z,8.40
2022-08-16T23:21:48.306Z,8.13
2022-08-16T23:24:20.607Z,8.20
2022-08-16T23:26:49.350Z,8.60
2022-08-16T23:29:25.577Z,8.47
2022-08-16T23:32:08.549Z,9.27
2022-08-16T23:34:36.112Z,9.50
2022-08-16T23:37:03.759Z,9.17
2022-08-16T23:39:31.482Z,9.10
2022-08-16T23:42:00.509Z,9.60
2022-08-16T23:44:44.148Z,9.20
2022-08-16T23:47:17.300Z,9.80
2022-08-16T23:50:01.223Z,10.50
2022-08-16T23:52:42.235Z,8.77
2022-08-16T23:55:22.041Z,9.37
2022-08-16T23:57:49.916Z,9.50
